createdAt,value
2019-06-26T00:00:10.290Z,49.005127
2019-06-26T00:01:10.257Z,48.907471
2019-06-26T00:02:10.377Z,48.809814
2019-06-26T00:03:10.240Z,48.809814
2019-06-26T00:04:10.221Z,48.712158
2019-06-26T00:05:10.236Z,48.712158
2019-06-26T00:06:10.233Z,48.712158
2019-06-26T00:07:10.205Z,48.712158
2019-06-26T00:08:10.189Z,48.712158
2019-06-26T00:09:11.192Z,48.712158
2019-06-26T00:10:10.183Z,48.712158
2019-06-26T00:11:10.161Z,48.809814
2019-06-26T00:12:10.149Z,48.809814
2019-06-26T00:13:25.013Z,48.907471
2019-06-26T00:14:11.148Z,48.907471
2019-06-26T00:15:10.136Z,48.809814
2019-06-26T00:16:10.102Z,48.907471
2019-06-26T00:17:10.181Z,48.907471
2019-06-26T00:18:10.100Z,48.809814
2019-06-26T00:19:10.073Z,48.712158
2019-06-26T00:20:10.065Z,48.809814
2019-06-26T00:21:10.052Z,48.809814
2019-06-26T00:22:10.108Z,48.809814
2019-06-26T00:23:10.038Z,48.809814
2019-06-26T00:24:10.027Z,48.809814
2019-06-26T00:25:10.030Z,48.809814
2019-06-26T00:26:10.008Z,49.005127
2019-06-26T00:27:09.993Z,49.005127
2019-06-26T00:28:09.997Z,49.102783
2019-06-26T00:29:09.980Z,49.102783
2019-06-26T00:30:09.958Z,49.102783
2019-06-26T00:31:09.990Z,49.102783
2019-06-26T00:32:09.979Z,49.102783
2019-06-26T00:33:09.931Z,49.102783
2019-06-26T00:34:09.924Z,49.304199
2019-06-26T00:35:09.929Z,49.401855
2019-06-26T00:36:09.902Z,49.475098
2019-06-26T00:37:09.959Z,49.572754
2019-06-26T00:38:09.901Z,49.499512
2019-06-26T00:39:09.873Z,49.572754
2019-06-26T00:40:09.868Z,49.475098
2019-06-26T00:41:09.865Z,49.279785
2019-06-26T00:42:09.918Z,49.279785
2019-06-26T00:43:09.868Z,49.182129
2019-06-26T00:44:09.824Z,49.304199
2019-06-26T00:45:09.808Z,49.182129
2019-06-26T00:46:09.789Z,49.182129
2019-06-26T00:47:09.788Z,49.182129
2019-06-26T00:48:09.770Z,49.279785
2019-06-26T00:49:09.780Z,49.279785
2019-06-26T00:50:09.764Z,49.279785
2019-06-26T00:51:09.753Z,49.078369
2019-06-26T00:52:09.744Z,49.078369
2019-06-26T00:53:09.740Z,49.078369
2019-06-26T00:54:09.722Z,48.980713
2019-06-26T00:55:09.706Z,48.980713
2019-06-26T00:56:09.686Z,48.980713
2019-06-26T00:57:09.669Z,48.980713
2019-06-26T00:58:09.698Z,48.883057
2019-06-26T00:59:09.679Z,48.883057
2019-06-26T01:00:09.651Z,48.883057
2019-06-26T01:01:09.654Z,48.980713
2019-06-26T01:02:09.639Z,48.883057
2019-06-26T01:03:09.689Z,48.388672
2019-06-26T01:04:09.611Z,48.687744
2019-06-26T01:05:09.623Z,48.687744
2019-06-26T01:06:09.584Z,48.687744
2019-06-26T01:07:09.589Z,48.687744
2019-06-26T01:08:09.593Z,48.590088
2019-06-26T01:09:10.629Z,48.687744
2019-06-26T01:10:09.548Z,48.687744
2019-06-26T01:11:09.541Z,48.687744
2019-06-26T01:12:09.547Z,48.687744
2019-06-26T01:13:09.532Z,48.687744
2019-06-26T01:14:09.527Z,48.687744
2019-06-26T01:15:09.508Z,48.687744
2019-06-26T01:16:10.481Z,48.687744
2019-06-26T01:17:09.475Z,48.590088
2019-06-26T01:18:09.471Z,48.590088
2019-06-26T01:19:09.445Z,48.590088
2019-06-26T01:20:09.443Z,48.590088
2019-06-26T01:21:09.434Z,48.687744
2019-06-26T01:22:10.425Z,48.687744
2019-06-26T01:23:09.409Z,48.687744
2019-06-26T01:24:09.414Z,48.7854
2019-06-26T01:25:09.395Z,48.7854
2019-06-26T01:26:09.387Z,48.7854
2019-06-26T01:27:09.384Z,48.883057
2019-06-26T01:28:09.380Z,48.883057
2019-06-26T01:29:09.339Z,48.883057
2019-06-26T01:30:09.410Z,48.980713
2019-06-26T01:31:09.364Z,49.078369
2019-06-26T01:32:09.333Z,48.980713
2019-06-26T01:33:09.325Z,48.883057
2019-06-26T01:34:09.308Z,48.590088
2019-06-26T01:35:09.345Z,48.883057
2019-06-26T01:36:09.285Z,48.883057
2019-06-26T01:37:09.261Z,48.7854
2019-06-26T01:38:09.272Z,48.7854
2019-06-26T01:39:09.248Z,48.687744
2019-06-26T01:40:09.232Z,48.687744
2019-06-26T01:41:09.221Z,48.7854
2019-06-26T01:42:09.226Z,48.687744
2019-06-26T01:43:09.195Z,48.883057
2019-06-26T01:44:14.572Z,48.883057
2019-06-26T01:45:09.182Z,48.590088
2019-06-26T01:46:09.167Z,48.7854
2019-06-26T01:47:09.164Z,48.7854
2019-06-26T01:48:09.161Z,48.7854
2019-06-26T01:49:09.145Z,48.883057
2019-06-26T01:50:09.140Z,48.7854
2019-06-26T01:51:09.116Z,48.883057
2019-06-26T01:52:09.125Z,48.980713
2019-06-26T01:53:09.099Z,49.078369
2019-06-26T01:54:09.095Z,49.279785
2019-06-26T01:55:09.145Z,49.279785
2019-06-26T01:56:09.131Z,49.279785
2019-06-26T01:57:09.537Z,49.078369
2019-06-26T01:58:09.061Z,49.182129
2019-06-26T01:59:09.042Z,49.182129
2019-06-26T02:00:09.033Z,49.279785
2019-06-26T02:01:09.102Z,49.279785
2019-06-26T02:02:09.018Z,49.182129
2019-06-26T02:03:09.016Z,48.980713
2019-06-26T02:04:09.009Z,49.279785
2019-06-26T02:05:09.976Z,49.377441
2019-06-26T02:06:08.974Z,49.572754
2019-06-26T02:07:08.961Z,49.377441
2019-06-26T02:08:08.959Z,49.377441
2019-06-26T02:09:08.948Z,49.377441
2019-06-26T02:10:08.939Z,49.475098
2019-06-26T02:11:08.985Z,49.279785
2019-06-26T02:12:08.909Z,49.078369
2019-06-26T02:13:08.899Z,48.388672
2019-06-26T02:14:08.886Z,48.492432
2019-06-26T02:15:08.883Z,48.590088
2019-06-26T02:16:08.928Z,48.7854
2019-06-26T02:17:08.844Z,48.980713
2019-06-26T02:18:08.844Z,49.005127
2019-06-26T02:19:08.844Z,49.005127
2019-06-26T02:20:08.827Z,49.304199
2019-06-26T02:21:08.796Z,49.597168
2019-06-26T02:22:08.839Z,49.694824
2019-06-26T02:23:08.799Z,49.67041
2019-06-26T02:24:08.786Z,49.694824
2019-06-26T02:25:08.763Z,49.499512
2019-06-26T02:26:08.775Z,49.597168
2019-06-26T02:27:08.773Z,49.475098
2019-06-26T02:28:08.750Z,49.475098
2019-06-26T02:29:08.723Z,49.572754
2019-06-26T02:30:08.761Z,49.597168
2019-06-26T02:31:08.708Z,49.67041
2019-06-26T02:32:08.703Z,49.597168
2019-06-26T02:33:08.685Z,49.279785
2019-06-26T02:34:08.696Z,49.078369
2019-06-26T02:35:10.699Z,49.279785
2019-06-26T02:36:08.656Z,49.377441
2019-06-26T02:37:08.714Z,49.401855
2019-06-26T02:38:08.647Z,49.401855
2019-06-26T02:39:08.622Z,49.377441
2019-06-26T02:40:08.633Z,49.304199
2019-06-26T02:41:08.613Z,49.279785
2019-06-26T02:42:08.737Z,49.499512
2019-06-26T02:43:08.591Z,49.475098
2019-06-26T02:44:08.590Z,49.377441
2019-06-26T02:45:08.574Z,49.377441
2019-06-26T02:46:08.576Z,49.377441
2019-06-26T02:47:19.102Z,49.377441
2019-06-26T02:48:09.531Z,49.279785
2019-06-26T02:49:08.521Z,49.078369
2019-06-26T02:50:08.510Z,48.883057
2019-06-26T02:51:08.506Z,48.883057
2019-06-26T02:52:08.501Z,48.980713
2019-06-26T02:53:08.479Z,48.980713
2019-06-26T02:54:08.484Z,49.078369
2019-06-26T02:55:08.469Z,48.980713
2019-06-26T02:56:08.453Z,48.980713
2019-06-26T02:57:08.430Z,49.078369
2019-06-26T02:58:08.436Z,48.883057
2019-06-26T02:59:08.419Z,49.078369
2019-06-26T03:00:08.413Z,49.078369
2019-06-26T03:01:08.403Z,49.078369
2019-06-26T03:02:08.395Z,49.078369
2019-06-26T03:03:08.457Z,49.182129
2019-06-26T03:04:08.363Z,49.182129
2019-06-26T03:05:08.358Z,49.182129
2019-06-26T03:06:08.390Z,49.279785
2019-06-26T03:07:08.338Z,49.279785
2019-06-26T03:08:08.379Z,49.377441
2019-06-26T03:09:08.305Z,49.475098
2019-06-26T03:10:08.299Z,49.572754
2019-06-26T03:11:08.286Z,49.572754
2019-06-26T03:12:08.278Z,49.67041
2019-06-26T03:13:08.267Z,49.67041
2019-06-26T03:14:08.255Z,49.768066
2019-06-26T03:15:09.813Z,49.871826
2019-06-26T03:16:08.235Z,49.969482
2019-06-26T03:17:08.223Z,50.067139
2019-06-26T03:18:08.217Z,50.164795
2019-06-26T03:19:08.223Z,49.871826
2019-06-26T03:20:08.203Z,49.572754
2019-06-26T03:21:08.195Z,49.871826
2019-06-26T03:22:08.166Z,50.164795
2019-06-26T03:23:08.201Z,50.262451
2019-06-26T03:24:08.156Z,50.360107
2019-06-26T03:25:08.145Z,50.262451
2019-06-26T03:26:09.139Z,50.262451
2019-06-26T03:27:09.358Z,50.164795
2019-06-26T03:28:08.129Z,50.262451
2019-06-26T03:29:08.163Z,50.262451
2019-06-26T03:30:08.091Z,50.262451
2019-06-26T03:31:08.086Z,50.262451
2019-06-26T03:32:08.074Z,50.262451
2019-06-26T03:33:08.066Z,50.360107
2019-06-26T03:34:08.075Z,50.360107
2019-06-26T03:35:08.063Z,50.463867
2019-06-26T03:36:08.057Z,50.561523
2019-06-26T03:37:08.020Z,50.561523
2019-06-26T03:38:08.022Z,50.561523
2019-06-26T03:39:08.068Z,50.561523
2019-06-26T03:40:07.998Z,50.65918
2019-06-26T03:41:08.001Z,50.756836
2019-06-26T03:42:07.967Z,50.756836
2019-06-26T03:43:08.067Z,50.756836
2019-06-26T03:44:07.971Z,50.756836
2019-06-26T03:45:21.376Z,50.65918
2019-06-26T03:46:08.945Z,50.65918
2019-06-26T03:47:07.929Z,50.65918
2019-06-26T03:48:07.910Z,50.854492
2019-06-26T03:49:07.941Z,51.348877
2019-06-26T03:50:07.938Z,51.544189
2019-06-26T03:51:07.874Z,51.739502
2019-06-26T03:52:08.858Z,51.641846
2019-06-26T03:53:07.857Z,51.544189
2019-06-26T03:54:07.865Z,51.544189
2019-06-26T03:55:08.853Z,51.641846
2019-06-26T03:56:07.832Z,51.348877
2019-06-26T03:57:08.406Z,51.348877
2019-06-26T03:58:08.797Z,51.739502
2019-06-26T03:59:07.791Z,51.739502
2019-06-26T04:00:07.808Z,51.843262
2019-06-26T04:01:07.804Z,51.940918
2019-06-26T04:02:07.763Z,51.940918
2019-06-26T04:03:07.749Z,51.940918
2019-06-26T04:04:07.747Z,51.940918
2019-06-26T04:05:07.914Z,51.843262
2019-06-26T04:06:07.712Z,51.739502
2019-06-26T04:07:07.702Z,51.641846
2019-06-26T04:08:07.731Z,51.348877
2019-06-26T04:09:07.700Z,51.049805
2019-06-26T04:10:07.726Z,51.153564
2019-06-26T04:11:07.725Z,51.049805
2019-06-26T04:12:07.704Z,51.251221
2019-06-26T04:13:07.648Z,51.251221
2019-06-26T04:14:07.652Z,51.251221
2019-06-26T04:15:07.619Z,51.153564
2019-06-26T04:16:07.635Z,51.049805
2019-06-26T04:17:07.594Z,51.049805
2019-06-26T04:18:07.610Z,51.049805
2019-06-26T04:19:07.604Z,50.952148
2019-06-26T04:20:07.684Z,50.952148
2019-06-26T04:21:07.637Z,50.952148
2019-06-26T04:22:07.560Z,50.952148
2019-06-26T04:23:08.542Z,50.952148
2019-06-26T04:24:07.525Z,50.952148
2019-06-26T04:25:07.514Z,50.952148
2019-06-26T04:26:07.564Z,50.854492
2019-06-26T04:27:07.523Z,50.854492
2019-06-26T04:28:07.482Z,50.854492
2019-06-26T04:29:07.468Z,50.854492
2019-06-26T04:30:07.474Z,50.854492
2019-06-26T04:31:07.462Z,50.854492
2019-06-26T04:32:07.441Z,50.854492
2019-06-26T04:33:07.439Z,50.854492
2019-06-26T04:34:07.424Z,50.854492
2019-06-26T04:35:07.414Z,50.952148
2019-06-26T04:36:07.417Z,50.854492
2019-06-26T04:37:07.389Z,50.854492
2019-06-26T04:38:07.394Z,50.854492
2019-06-26T04:39:07.372Z,50.952148
2019-06-26T04:40:07.364Z,50.952148
2019-06-26T04:41:07.346Z,51.049805
2019-06-26T04:42:07.348Z,51.049805
2019-06-26T04:43:07.330Z,51.049805
2019-06-26T04:44:07.328Z,51.153564
2019-06-26T04:45:07.352Z,51.049805
2019-06-26T04:46:07.315Z,51.153564
2019-06-26T04:47:07.353Z,51.153564
2019-06-26T04:48:08.274Z,51.251221
2019-06-26T04:49:07.280Z,51.348877
2019-06-26T04:50:07.269Z,51.544189
2019-06-26T04:51:07.244Z,51.544189
2019-06-26T04:52:07.314Z,51.641846
2019-06-26T04:53:07.230Z,51.739502
2019-06-26T04:54:07.223Z,51.843262
2019-06-26T04:55:07.202Z,51.940918
2019-06-26T04:56:07.227Z,52.038574
2019-06-26T04:57:07.186Z,52.038574
2019-06-26T04:58:07.185Z,52.13623
2019-06-26T04:59:07.155Z,52.233887
2019-06-26T05:00:07.174Z,52.038574
2019-06-26T05:01:08.134Z,52.13623
2019-06-26T05:02:07.146Z,52.233887
2019-06-26T05:03:07.127Z,52.233887
2019-06-26T05:04:07.129Z,52.331543
2019-06-26T05:05:07.105Z,52.429199
2019-06-26T05:06:07.093Z,52.13623
2019-06-26T05:07:07.098Z,51.940918
2019-06-26T05:08:07.083Z,52.13623
2019-06-26T05:09:07.082Z,52.233887
2019-06-26T05:10:07.075Z,51.843262
2019-06-26T05:11:07.120Z,51.641846
2019-06-26T05:12:08.062Z,51.348877
2019-06-26T05:13:07.029Z,51.049805
2019-06-26T05:14:07.022Z,50.854492
2019-06-26T05:15:07.033Z,50.65918
2019-06-26T05:16:14.655Z,50.463867
2019-06-26T05:17:07.976Z,50.463867
2019-06-26T05:18:06.984Z,50.756836
2019-06-26T05:19:06.977Z,50.952148
2019-06-26T05:20:06.956Z,50.952148
2019-06-26T05:21:06.941Z,50.854492
2019-06-26T05:22:06.958Z,50.65918
2019-06-26T05:23:06.920Z,50.067139
2019-06-26T05:24:06.912Z,50.164795
2019-06-26T05:25:06.908Z,50.463867
2019-06-26T05:26:06.887Z,50.65918
2019-06-26T05:27:06.890Z,50.65918
2019-06-26T05:28:08.488Z,50.854492
2019-06-26T05:29:06.861Z,50.561523
2019-06-26T05:30:07.473Z,50.65918
2019-06-26T05:31:06.882Z,51.843262
2019-06-26T05:32:06.824Z,52.038574
2019-06-26T05:33:06.827Z,51.940918
2019-06-26T05:34:09.857Z,52.038574
2019-06-26T05:35:06.797Z,52.038574
2019-06-26T05:36:06.798Z,52.038574
2019-06-26T05:37:06.859Z,51.739502
2019-06-26T05:38:06.768Z,51.940918
2019-06-26T05:39:06.762Z,51.739502
2019-06-26T05:40:06.739Z,51.641846
2019-06-26T05:41:06.736Z,51.446533
2019-06-26T05:42:07.787Z,51.641846
2019-06-26T05:43:06.702Z,51.348877
2019-06-26T05:44:06.699Z,51.544189
2019-06-26T05:45:06.707Z,51.544189
2019-06-26T05:46:06.680Z,51.446533
2019-06-26T05:47:07.650Z,51.641846
2019-06-26T05:48:06.697Z,51.641846
2019-06-26T05:49:06.635Z,51.544189
2019-06-26T05:50:06.635Z,51.348877
2019-06-26T05:51:06.625Z,51.251221
2019-06-26T05:52:06.613Z,51.446533
2019-06-26T05:53:06.621Z,51.251221
2019-06-26T05:54:06.674Z,50.65918
2019-06-26T05:55:06.578Z,50.756836
2019-06-26T05:56:06.602Z,50.756836
2019-06-26T05:57:06.564Z,51.049805
2019-06-26T05:58:07.590Z,51.348877
2019-06-26T05:59:06.545Z,51.544189
2019-06-26T06:00:06.528Z,50.854492
2019-06-26T06:01:06.520Z,51.153564
2019-06-26T06:02:06.517Z,51.153564
2019-06-26T06:03:06.510Z,51.251221
2019-06-26T06:04:06.505Z,51.251221
2019-06-26T06:05:06.484Z,51.348877
2019-06-26T06:06:06.509Z,51.153564
2019-06-26T06:07:06.501Z,51.153564
2019-06-26T06:08:06.503Z,51.153564
2019-06-26T06:09:06.429Z,50.952148
2019-06-26T06:10:06.434Z,51.153564
2019-06-26T06:11:06.418Z,51.049805
2019-06-26T06:12:06.406Z,51.049805
2019-06-26T06:13:06.467Z,50.756836
2019-06-26T06:14:06.483Z,50.561523
2019-06-26T06:15:06.461Z,50.561523
2019-06-26T06:16:07.356Z,50.360107
2019-06-26T06:17:06.350Z,50.164795
2019-06-26T06:18:06.343Z,50.067139
2019-06-26T06:19:06.356Z,50.262451
2019-06-26T06:20:06.322Z,50.360107
2019-06-26T06:21:06.429Z,50.164795
2019-06-26T06:22:06.294Z,50.360107
2019-06-26T06:23:06.286Z,49.871826
2019-06-26T06:24:06.275Z,49.871826
2019-06-26T06:25:06.266Z,49.279785
2019-06-26T06:26:06.260Z,49.572754
2019-06-26T06:27:06.253Z,49.871826
2019-06-26T06:28:06.237Z,49.768066
2019-06-26T06:29:06.221Z,49.67041
2019-06-26T06:30:06.217Z,49.768066
2019-06-26T06:31:06.200Z,49.279785
2019-06-26T06:32:06.204Z,49.279785
2019-06-26T06:33:06.194Z,49.182129
2019-06-26T06:34:06.285Z,48.687744
2019-06-26T06:35:06.160Z,49.078369
2019-06-26T06:36:09.475Z,48.7854
2019-06-26T06:37:06.154Z,49.279785
2019-06-26T06:38:06.139Z,48.883057
2019-06-26T06:39:06.223Z,48.687744
2019-06-26T06:40:06.130Z,48.590088
2019-06-26T06:41:06.102Z,48.388672
2019-06-26T06:42:06.084Z,47.796631
2019-06-26T06:43:06.078Z,48.388672
2019-06-26T06:44:06.083Z,48.291016
2019-06-26T06:45:06.055Z,48.492432
2019-06-26T06:46:06.047Z,48.687744
2019-06-26T06:47:08.975Z,48.687744
2019-06-26T06:48:06.036Z,48.590088
2019-06-26T06:49:06.016Z,48.883057
2019-06-26T06:50:06.009Z,48.590088
2019-06-26T06:51:06.004Z,48.590088
2019-06-26T06:52:05.979Z,48.388672
2019-06-26T06:53:05.982Z,48.193359
2019-06-26T06:54:05.973Z,48.7854
2019-06-26T06:55:05.959Z,47.900391
2019-06-26T06:56:05.948Z,48.095703
2019-06-26T06:57:05.932Z,48.492432
2019-06-26T06:58:05.928Z,48.492432
2019-06-26T06:59:05.918Z,48.590088
2019-06-26T07:00:05.967Z,48.193359
2019-06-26T07:01:05.898Z,47.503662
2019-06-26T07:02:05.896Z,47.998047
2019-06-26T07:03:05.886Z,47.698975
2019-06-26T07:04:05.864Z,47.796631
2019-06-26T07:05:05.915Z,47.796631
2019-06-26T07:06:05.832Z,47.698975
2019-06-26T07:07:05.833Z,47.601318
2019-06-26T07:08:05.849Z,46.716309
2019-06-26T07:09:05.811Z,46.520996
2019-06-26T07:10:05.793Z,46.716309
2019-06-26T07:11:05.904Z,47.009277
2019-06-26T07:12:05.780Z,46.221924
2019-06-26T07:13:05.765Z,46.417236
2019-06-26T07:14:05.754Z,46.31958
2019-06-26T07:15:05.742Z,46.124268
2019-06-26T07:16:05.918Z,45.928955
2019-06-26T07:17:19.715Z,45.43457
2019-06-26T07:18:07.788Z,45.43457
2019-06-26T07:19:05.705Z,45.532227
2019-06-26T07:20:05.706Z,45.629883
2019-06-26T07:21:05.685Z,45.239258
2019-06-26T07:22:07.411Z,45.532227
2019-06-26T07:23:05.677Z,45.629883
2019-06-26T07:24:05.660Z,45.532227
2019-06-26T07:25:05.657Z,45.727539
2019-06-26T07:26:05.636Z,45.928955
2019-06-26T07:27:06.721Z,45.629883
2019-06-26T07:28:05.633Z,45.727539
2019-06-26T07:29:05.636Z,45.928955
2019-06-26T07:30:05.598Z,45.831299
2019-06-26T07:31:05.625Z,45.928955
2019-06-26T07:32:05.580Z,46.31958
2019-06-26T07:33:05.560Z,46.221924
2019-06-26T07:34:05.558Z,46.026611
2019-06-26T07:35:05.532Z,46.221924
2019-06-26T07:36:05.540Z,46.124268
2019-06-26T07:37:05.643Z,46.221924
2019-06-26T07:38:05.513Z,46.31958
2019-06-26T07:39:05.535Z,46.417236
2019-06-26T07:40:05.497Z,46.520996
2019-06-26T07:41:05.471Z,46.520996
2019-06-26T07:42:05.549Z,46.618652
2019-06-26T07:43:06.451Z,46.520996
2019-06-26T07:44:05.473Z,46.221924
2019-06-26T07:45:05.435Z,46.417236
2019-06-26T07:46:05.483Z,46.618652
2019-06-26T07:47:21.670Z,46.618652
2019-06-26T07:48:06.417Z,46.716309
2019-06-26T07:49:05.392Z,46.911621
2019-06-26T07:50:05.389Z,46.911621
2019-06-26T07:51:05.376Z,46.911621
2019-06-26T07:52:05.356Z,47.30835
2019-06-26T07:53:05.355Z,47.210693
2019-06-26T07:54:05.345Z,47.210693
2019-06-26T07:55:05.387Z,47.406006
2019-06-26T07:56:06.314Z,47.30835
2019-06-26T07:57:05.304Z,47.406006
2019-06-26T07:58:05.308Z,47.406006
2019-06-26T07:59:05.311Z,47.106934
2019-06-26T08:00:05.367Z,47.009277
2019-06-26T08:01:05.278Z,47.106934
2019-06-26T08:02:05.320Z,47.406006
2019-06-26T08:03:05.307Z,47.406006
2019-06-26T08:04:05.232Z,47.406006
2019-06-26T08:05:05.219Z,47.210693
2019-06-26T08:06:05.232Z,47.009277
2019-06-26T08:07:05.199Z,46.813965
2019-06-26T08:08:05.255Z,46.813965
2019-06-26T08:09:05.176Z,46.813965
2019-06-26T08:10:05.306Z,46.716309
2019-06-26T08:11:06.697Z,46.618652
2019-06-26T08:12:05.202Z,46.911621
2019-06-26T08:13:05.139Z,46.911621
2019-06-26T08:14:05.131Z,46.417236
2019-06-26T08:15:05.147Z,46.716309
2019-06-26T08:16:05.125Z,46.716309
2019-06-26T08:17:05.286Z,46.618652
2019-06-26T08:18:05.098Z,46.520996
2019-06-26T08:19:05.094Z,46.221924
2019-06-26T08:20:05.100Z,46.221924
2019-06-26T08:21:12.377Z,46.31958
2019-06-26T08:22:05.060Z,46.520996
2019-06-26T08:23:05.036Z,46.520996
2019-06-26T08:24:05.029Z,46.716309
2019-06-26T08:25:05.044Z,47.009277
2019-06-26T08:26:05.029Z,47.601318
2019-06-26T08:27:05.025Z,47.479248
2019-06-26T08:28:04.991Z,47.283936
2019-06-26T08:29:05.051Z,47.283936
2019-06-26T08:30:05.018Z,47.283936
2019-06-26T08:31:05.066Z,47.088623
2019-06-26T08:32:04.967Z,46.887207
2019-06-26T08:33:04.935Z,47.283936
2019-06-26T08:34:04.988Z,46.887207
2019-06-26T08:35:04.920Z,46.398926
2019-06-26T08:36:04.899Z,46.30127
2019-06-26T08:37:05.010Z,46.31958
2019-06-26T08:38:11.239Z,46.31958
2019-06-26T08:39:05.932Z,45.806885
2019-06-26T08:40:04.884Z,45.727539
2019-06-26T08:41:04.882Z,45.806885
2019-06-26T08:42:04.845Z,45.727539
2019-06-26T08:43:04.848Z,45.727539
2019-06-26T08:44:04.884Z,45.709229
2019-06-26T08:45:04.822Z,45.831299
2019-06-26T08:46:04.798Z,45.727539
2019-06-26T08:47:04.787Z,45.507812
2019-06-26T08:48:17.168Z,45.507812
2019-06-26T08:49:05.761Z,45.410156
2019-06-26T08:50:05.746Z,45.410156
2019-06-26T08:51:04.749Z,45.3125
2019-06-26T08:52:04.728Z,45.214844
2019-06-26T08:53:04.821Z,45.214844
2019-06-26T08:54:05.754Z,45.214844
2019-06-26T08:55:04.695Z,45.214844
2019-06-26T08:56:05.785Z,45.214844
2019-06-26T08:57:05.116Z,45.019531
2019-06-26T08:58:04.855Z,45.117188
2019-06-26T08:59:04.650Z,45.117188
2019-06-26T09:00:04.675Z,45.117188
2019-06-26T09:01:04.648Z,45.117188
2019-06-26T09:02:04.742Z,45.117188
2019-06-26T09:03:05.603Z,45.117188
2019-06-26T09:04:04.611Z,45.214844
2019-06-26T09:05:04.695Z,45.117188
2019-06-26T09:06:04.591Z,46.002197
2019-06-26T09:07:04.618Z,45.904541
2019-06-26T09:08:07.319Z,45.904541
2019-06-26T09:09:04.559Z,45.806885
2019-06-26T09:10:04.647Z,46.099854
2019-06-26T09:11:04.533Z,46.30127
2019-06-26T09:12:04.554Z,46.30127
2019-06-26T09:13:04.529Z,46.30127
2019-06-26T09:14:04.513Z,46.19751
2019-06-26T09:15:04.517Z,46.002197
2019-06-26T09:16:04.550Z,46.002197
2019-06-26T09:17:04.507Z,46.002197
2019-06-26T09:18:04.636Z,46.099854
2019-06-26T09:19:04.556Z,46.099854
2019-06-26T09:20:04.469Z,46.002197
2019-06-26T09:21:04.510Z,46.002197
2019-06-26T09:22:04.416Z,45.904541
2019-06-26T09:23:04.422Z,45.904541
2019-06-26T09:24:04.495Z,46.398926
2019-06-26T09:25:20.086Z,46.30127
2019-06-26T09:26:05.372Z,46.099854
2019-06-26T09:27:04.407Z,46.398926
2019-06-26T09:28:04.352Z,46.496582
2019-06-26T09:29:04.352Z,47.186279
2019-06-26T09:30:04.364Z,47.680664
2019-06-26T09:31:04.875Z,47.680664
2019-06-26T09:32:04.682Z,47.479248
2019-06-26T09:33:04.329Z,47.186279
2019-06-26T09:34:04.327Z,47.576904
2019-06-26T09:35:04.387Z,47.381592
2019-06-26T09:36:06.928Z,47.186279
2019-06-26T09:37:04.354Z,46.990967
2019-06-26T09:38:04.321Z,47.479248
2019-06-26T09:39:04.237Z,47.283936
2019-06-26T09:40:05.226Z,47.283936
2019-06-26T09:41:04.225Z,47.088623
2019-06-26T09:42:04.214Z,46.990967
2019-06-26T09:43:04.211Z,46.594238
2019-06-26T09:44:04.195Z,46.594238
2019-06-26T09:45:04.207Z,47.77832
2019-06-26T09:46:04.421Z,47.77832
2019-06-26T09:47:04.364Z,47.77832
2019-06-26T09:48:04.187Z,46.691895
2019-06-26T09:49:04.130Z,46.789551
2019-06-26T09:50:04.148Z,45.410156
2019-06-26T09:51:04.185Z,45.410156
2019-06-26T09:52:04.112Z,45.117188
2019-06-26T09:53:05.669Z,45.117188
2019-06-26T09:54:04.086Z,45.019531
2019-06-26T09:55:04.363Z,44.030762
2019-06-26T09:56:04.074Z,44.134521
2019-06-26T09:57:05.224Z,44.329834
2019-06-26T09:58:06.066Z,44.720459
2019-06-26T09:59:06.076Z,46.398926
2019-06-26T10:00:05.146Z,46.19751
2019-06-26T10:01:04.482Z,45.904541
2019-06-26T10:02:04.013Z,46.569824
2019-06-26T10:03:04.005Z,45.880127
2019-06-26T10:04:03.986Z,43.615723
2019-06-26T10:05:04.003Z,43.322754
2019-06-26T10:06:04.023Z,44.287109
2019-06-26T10:07:03.955Z,43.499756
2019-06-26T10:08:03.950Z,42.712402
2019-06-26T10:09:04.179Z,41.314697
2019-06-26T10:10:03.916Z,40.899658
2019-06-26T10:11:05.617Z,40.307617
2019-06-26T10:12:03.920Z,40.093994
2019-06-26T10:13:03.900Z,40.386963
2019-06-26T10:14:03.887Z,38.916016
2019-06-26T10:15:03.929Z,39.599609
2019-06-26T10:16:03.960Z,39.599609
2019-06-26T10:17:03.863Z,39.996338
2019-06-26T10:18:03.875Z,38.696289
2019-06-26T10:19:09.868Z,38.696289
2019-06-26T10:20:03.895Z,39.385986
2019-06-26T10:21:04.233Z,41.546631
2019-06-26T10:22:03.806Z,41.156006
2019-06-26T10:23:04.003Z,40.289307
2019-06-26T10:24:03.802Z,40.783691
2019-06-26T10:25:03.851Z,42.651367
2019-06-26T10:26:04.773Z,43.139648
2019-06-26T10:27:03.760Z,43.731689
2019-06-26T10:28:03.777Z,43.945312
2019-06-26T10:29:03.767Z,43.945312
2019-06-26T10:30:03.726Z,44.049072
2019-06-26T10:31:03.723Z,44.537354
2019-06-26T10:32:03.763Z,44.262695
2019-06-26T10:33:03.687Z,43.084717
2019-06-26T10:34:03.681Z,44.561768
2019-06-26T10:35:04.706Z,44.067383
2019-06-26T10:36:03.640Z,43.774414
2019-06-26T10:37:03.697Z,43.969727
2019-06-26T10:38:04.490Z,43.988037
2019-06-26T10:39:03.634Z,43.200684
2019-06-26T10:40:03.638Z,43.304443
2019-06-26T10:41:03.593Z,43.695068
2019-06-26T10:42:03.589Z,43.792725
2019-06-26T10:43:03.629Z,43.695068
2019-06-26T10:44:03.588Z,43.695068
2019-06-26T10:45:03.560Z,42.41333
2019-06-26T10:46:03.563Z,43.817139
2019-06-26T10:47:03.557Z,41.156006
2019-06-26T10:48:03.543Z,41.552734
2019-06-26T10:49:03.518Z,41.552734
2019-06-26T10:50:03.507Z,42.437744
2019-06-26T10:51:03.532Z,42.5354
2019-06-26T10:52:03.519Z,42.828369
2019-06-26T10:53:03.474Z,42.730713
2019-06-26T10:54:03.478Z,43.127441
2019-06-26T10:55:03.615Z,41.552734
2019-06-26T10:56:03.508Z,41.351318
2019-06-26T10:57:03.492Z,40.661621
2019-06-26T10:58:03.484Z,40.783691
2019-06-26T10:59:03.422Z,41.07666
2019-06-26T11:00:39.114Z,42.950439
2019-06-26T11:01:39.061Z,43.933105
2019-06-26T11:02:39.038Z,44.030762
2019-06-26T11:03:39.031Z,44.134521
2019-06-26T11:04:39.019Z,44.525146
2019-06-26T11:05:39.002Z,44.818115
2019-06-26T11:06:39.006Z,45.019531
2019-06-26T11:07:38.987Z,45.019531
2019-06-26T11:08:38.980Z,44.818115
2019-06-26T11:09:38.981Z,45.019531
2019-06-26T11:10:39.031Z,45.019531
2019-06-26T11:11:38.950Z,44.921875
2019-06-26T11:12:39.967Z,44.818115
2019-06-26T11:13:38.924Z,44.921875
2019-06-26T11:14:38.919Z,44.818115
2019-06-26T11:15:39.014Z,44.720459
2019-06-26T11:16:38.903Z,44.622803
2019-06-26T11:17:39.018Z,44.622803
2019-06-26T11:18:38.886Z,44.622803
2019-06-26T11:19:44.036Z,44.622803
2019-06-26T11:20:38.906Z,44.525146
2019-06-26T11:21:40.305Z,44.42749
2019-06-26T11:22:38.998Z,44.720459
2019-06-26T11:23:38.814Z,44.720459
2019-06-26T11:24:38.808Z,44.818115
2019-06-26T11:25:38.808Z,44.720459
2019-06-26T11:26:39.789Z,44.921875